Time;durP1;ratioP1;P1;durP2;ratioP2;P2;SDS_P1;SDS_P2;PMS_P1;PMS_P2;Temp;Humidity;BMP_temperature;BMP_pressure;BME280_temperature;BME280_humidity;BME280_pressure;Samples;Min_cycle;Max_cycle;Signal;HPM_P1;HPM_P2
2021/01/02 00:02:04;;;;;;;30.30;10.48;;;-0.20;99.90;;;;;;5033409;28;20227;-88
2021/01/02 00:05:01;;;;;;;48.67;12.30;;;-0.10;99.90;;;;;;5032536;28;20209;-90
2021/01/02 00:08:05;;;;;;;31.60;10.77;;;-0.10;99.90;;;;;;5025956;28;20215;-88
2021/01/02 00:10:38;;;;;;;28.55;11.23;;;0.00;99.90;;;;;;5033313;28;20217;-88
2021/01/02 00:13:18;;;;;;;33.97;12.82;;;0.00;99.90;;;;;;5031876;28;20207;-87
2021/01/02 00:16:14;;;;;;;21.63;10.93;;;0.00;99.90;;;;;;5033229;28;20210;-86
2021/01/02 00:18:55;;;;;;;39.47;13.48;;;0.00;99.90;;;;;;5033081;28;20238;-89
2021/01/02 00:21:26;;;;;;;38.22;15.50;;;0.00;99.90;;;;;;5032986;28;20679;-90
2021/01/02 00:24:41;;;;;;;29.40;11.95;;;0.00;99.90;;;;;;5033422;28;20214;-89
2021/01/02 00:27:09;;;;;;;19.83;12.15;;;0.00;99.90;;;;;;5031792;28;20672;-90
2021/01/02 00:30:09;;;;;;;33.63;10.82;;;0.00;99.90;;;;;;5032746;28;20230;-87
2021/01/02 00:33:00;;;;;;;22.02;11.18;;;0.00;99.90;;;;;;5032781;28;20282;-88
2021/01/02 00:35:28;;;;;;;29.00;11.00;;;0.10;99.90;;;;;;5031690;28;20217;-91
2021/01/02 00:38:03;;;;;;;23.75;10.93;;;0.10;99.90;;;;;;5031415;28;20253;-91
2021/01/02 00:40:30;;;;;;;25.55;11.32;;;0.20;99.90;;;;;;5032832;28;20309;-89
2021/01/02 00:42:58;;;;;;;32.08;12.02;;;0.10;99.90;;;;;;5031716;28;20202;-88
2021/01/02 00:45:26;;;;;;;23.77;10.20;;;0.10;99.90;;;;;;5035307;28;20297;-86
2021/01/02 00:47:52;;;;;;;13.18;9.60;;;0.20;99.90;;;;;;5036954;28;20306;-86
2021/01/02 00:50:20;;;;;;;21.42;10.80;;;0.20;99.90;;;;;;5036604;28;20254;-87
2021/01/02 00:53:19;;;;;;;21.42;10.65;;;0.20;99.90;;;;;;5036700;28;20242;-87
2021/01/02 00:56:01;;;;;;;15.60;10.23;;;0.30;99.90;;;;;;5036307;28;20217;-84
2021/01/02 00:58:53;;;;;;;17.77;10.15;;;0.30;99.90;;;;;;5036351;28;20262;-83
2021/01/02 01:01:35;;;;;;;21.70;10.32;;;0.30;99.90;;;;;;5027419;28;20289;-83
2021/01/02 01:04:41;;;;;;;17.88;9.80;;;0.40;99.90;;;;;;5036382;28;20748;-88
2021/01/02 01:07:17;;;;;;;19.75;12.18;;;0.50;99.90;;;;;;5036609;28;20293;-84
2021/01/02 01:09:49;;;;;;;20.60;11.68;;;0.40;99.90;;;;;;5036357;28;20230;-82
2021/01/02 01:12:18;;;;;;;19.02;10.07;;;0.40;99.90;;;;;;5035079;28;20317;-82
2021/01/02 01:14:45;;;;;;;13.98;9.57;;;0.40;99.90;;;;;;5036061;28;20294;-87
2021/01/02 01:17:16;;;;;;;18.98;10.93;;;0.50;99.90;;;;;;5036372;28;20290;-89
2021/01/02 01:19:46;;;;;;;14.82;9.65;;;0.50;99.90;;;;;;5036214;28;20211;-88
2021/01/02 01:22:16;;;;;;;22.48;11.70;;;0.50;99.90;;;;;;5036117;28;20203;-86
2021/01/02 01:24:48;;;;;;;15.05;9.77;;;0.50;99.90;;;;;;5036254;28;20217;-82
2021/01/02 01:27:23;;;;;;;12.85;8.80;;;0.50;99.90;;;;;;5034454;28;20206;-83
2021/01/02 01:29:58;;;;;;;17.30;8.98;;;0.40;99.90;;;;;;5035707;28;20265;-83
2021/01/02 01:32:28;;;;;;;12.70;8.07;;;0.50;99.90;;;;;;5035988;28;20210;-84
2021/01/02 01:34:56;;;;;;;15.48;9.50;;;0.50;99.90;;;;;;5035457;28;20211;-84
2021/01/02 01:37:27;;;;;;;14.80;8.13;;;0.50;99.90;;;;;;5036017;28;20658;-89
2021/01/02 01:39:55;;;;;;;10.70;8.45;;;0.50;99.90;;;;;;5036051;28;20583;-86
2021/01/02 01:42:38;;;;;;;21.65;9.93;;;0.60;99.90;;;;;;5033999;28;20247;-84
2021/01/02 01:45:30;;;;;;;15.60;8.93;;;0.60;99.90;;;;;;5035622;28;20210;-83
2021/01/02 01:48:04;;;;;;;11.13;8.25;;;0.60;99.90;;;;;;5034967;28;20298;-83
2021/01/02 01:50:45;;;;;;;22.80;12.23;;;0.50;99.90;;;;;;5035186;28;20198;-83
2021/01/02 01:53:44;;;;;;;21.02;10.02;;;0.50;99.90;;;;;;5035454;28;20290;-85
2021/01/02 01:56:29;;;;;;;15.35;8.02;;;0.60;99.90;;;;;;5035619;28;20302;-91
2021/01/02 01:59:21;;;;;;;16.92;9.90;;;0.70;99.90;;;;;;5034603;28;20203;-85
2021/01/02 02:01:49;;;;;;;13.88;8.55;;;0.70;99.90;;;;;;5035213;28;20604;-84
2021/01/02 02:04:32;;;;;;;18.88;10.35;;;0.70;99.90;;;;;;5034201;28;20310;-84
2021/01/02 02:07:01;;;;;;;16.30;10.25;;;0.70;99.90;;;;;;5035395;28;20202;-84
2021/01/02 02:09:41;;;;;;;22.92;10.18;;;0.70;99.90;;;;;;5035132;28;20285;-84
2021/01/02 02:12:19;;;;;;;14.57;8.60;;;0.70;99.90;;;;;;5034188;28;20745;-91
2021/01/02 02:14:54;;;;;;;16.73;9.18;;;0.70;99.90;;;;;;5038454;28;20206;-87
2021/01/02 02:17:24;;;;;;;16.00;9.18;;;0.80;99.90;;;;;;5037635;28;20643;-86
2021/01/02 02:19:55;;;;;;;16.30;8.30;;;0.80;99.90;;;;;;5035431;28;20289;-86
2021/01/02 02:22:24;;;;;;;14.60;9.48;;;0.80;99.90;;;;;;5035198;28;20735;-84
2021/01/02 02:24:53;;;;;;;17.13;9.35;;;0.80;99.90;;;;;;5035165;28;20286;-83
2021/01/02 02:27:25;;;;;;;13.93;9.00;;;0.80;99.90;;;;;;5033333;28;20234;-84
2021/01/02 02:30:11;;;;;;;13.30;8.75;;;0.80;99.90;;;;;;5034533;28;20234;-91
2021/01/02 02:32:38;;;;;;;13.73;10.30;;;0.80;99.90;;;;;;5028880;28;20606;-87
2021/01/02 02:35:08;;;;;;;14.80;9.40;;;0.80;99.90;;;;;;5016080;28;20212;-83
2021/01/02 02:37:37;;;;;;;15.30;8.70;;;0.80;99.90;;;;;;4994055;28;20564;-84
2021/01/02 02:40:06;;;;;;;9.77;7.95;;;0.90;99.90;;;;;;5015037;28;20208;-83
2021/01/02 02:42:36;;;;;;;15.07;9.15;;;0.90;99.90;;;;;;5017832;28;20256;-83
2021/01/02 02:45:03;;;;;;;14.85;8.15;;;0.80;99.90;;;;;;5036861;28;20213;-83
2021/01/02 02:47:32;;;;;;;15.95;9.10;;;0.90;99.90;;;;;;5035783;28;20209;-84
2021/01/02 02:50:00;;;;;;;15.77;8.68;;;0.90;99.90;;;;;;5053742;28;20215;-83
2021/01/02 02:52:34;;;;;;;16.10;9.13;;;0.90;99.90;;;;;;5044678;28;20250;-83
2021/01/02 02:55:02;;;;;;;15.38;8.40;;;0.90;99.90;;;;;;5035770;28;20294;-83
2021/01/02 02:57:30;;;;;;;17.08;9.13;;;0.90;99.90;;;;;;5035539;28;20305;-83
2021/01/02 02:59:58;;;;;;;17.15;10.30;;;1.00;99.90;;;;;;5034951;28;20230;-83
2021/01/02 03:02:26;;;;;;;21.73;11.20;;;1.00;99.90;;;;;;5035766;28;20297;-83
2021/01/02 03:04:52;;;;;;;18.65;10.35;;;1.00;99.90;;;;;;5034549;28;20286;-82
2021/01/02 03:07:19;;;;;;;16.23;8.90;;;1.10;99.90;;;;;;5047955;28;20187;-83
2021/01/02 03:09:46;;;;;;;18.00;10.55;;;1.10;99.90;;;;;;5045058;28;20313;-83
2021/01/02 03:12:12;;;;;;;16.38;8.90;;;1.10;99.90;;;;;;5035107;28;20289;-83
2021/01/02 03:14:39;;;;;;;17.98;9.25;;;1.10;99.90;;;;;;5034622;28;20264;-83
2021/01/02 03:17:06;;;;;;;21.88;11.07;;;1.10;99.90;;;;;;5032276;28;20639;-83
2021/01/02 03:19:33;;;;;;;23.85;11.15;;;1.10;99.90;;;;;;5034890;28;20297;-83
2021/01/02 03:21:59;;;;;;;24.17;10.80;;;1.20;99.90;;;;;;5034961;28;20293;-83
2021/01/02 03:24:26;;;;;;;20.90;8.23;;;1.10;99.90;;;;;;5045781;28;20251;-82
2021/01/02 03:26:52;;;;;;;25.75;13.18;;;1.20;99.90;;;;;;5040077;28;20210;-84
2021/01/02 03:29:19;;;;;;;28.42;11.55;;;1.20;99.90;;;;;;5032263;28;20694;-86
2021/01/02 03:31:45;;;;;;;22.70;10.48;;;1.10;99.90;;;;;;5034096;28;20579;-86
2021/01/02 03:34:13;;;;;;;24.63;10.80;;;1.10;99.90;;;;;;5032447;28;20260;-86
2021/01/02 03:36:39;;;;;;;25.20;10.35;;;1.10;99.90;;;;;;5033607;28;20345;-88
2021/01/02 03:39:06;;;;;;;35.45;10.63;;;1.20;99.90;;;;;;5033545;28;20301;-86
2021/01/02 03:41:32;;;;;;;23.33;9.38;;;1.30;99.90;;;;;;5033877;28;20203;-87
2021/01/02 03:44:00;;;;;;;18.55;9.80;;;1.30;99.90;;;;;;5032949;28;20592;-90
2021/01/02 03:46:27;;;;;;;43.78;11.80;;;1.30;99.90;;;;;;5033979;28;20207;-88
2021/01/02 03:48:54;;;;;;;37.10;12.70;;;1.30;99.90;;;;;;5033465;28;20324;-87
2021/01/02 03:51:26;;;;;;;24.30;11.98;;;1.30;99.90;;;;;;5033790;28;20265;-85
2021/01/02 03:53:52;;;;;;;22.55;9.65;;;1.30;99.90;;;;;;5033368;28;20211;-85
2021/01/02 03:56:21;;;;;;;25.90;9.65;;;1.30;99.90;;;;;;5033729;28;20207;-87
2021/01/02 03:58:50;;;;;;;26.60;10.13;;;1.40;99.90;;;;;;5032238;28;20211;-86
2021/01/02 04:01:16;;;;;;;20.05;10.23;;;1.50;99.90;;;;;;5034577;28;20595;-88
2021/01/02 04:03:42;;;;;;;20.88;10.88;;;1.50;99.90;;;;;;5044941;28;20190;-88
2021/01/02 04:06:09;;;;;;;21.40;10.65;;;1.30;99.90;;;;;;5056660;28;20206;-85
2021/01/02 04:08:36;;;;;;;18.23;8.13;;;1.30;99.90;;;;;;5057432;28;20222;-84
2021/01/02 04:11:03;;;;;;;23.08;9.70;;;1.20;99.90;;;;;;5054547;28;20795;-84
2021/01/02 04:13:29;;;;;;;22.77;10.57;;;1.20;99.90;;;;;;5034401;28;20294;-84
2021/01/02 04:15:55;;;;;;;20.92;9.18;;;1.30;99.90;;;;;;5034405;28;20282;-87
2021/01/02 04:18:22;;;;;;;30.73;11.73;;;1.30;99.90;;;;;;5035378;28;20256;-92
2021/01/02 04:20:49;;;;;;;17.85;8.27;;;1.20;99.90;;;;;;5038844;28;20238;-87
2021/01/02 04:23:16;;;;;;;22.38;9.43;;;1.10;99.90;;;;;;5037670;28;20207;-85
2021/01/02 04:25:43;;;;;;;26.25;9.50;;;1.10;99.90;;;;;;5037687;28;20213;-84
2021/01/02 04:28:10;;;;;;;18.48;8.55;;;1.00;99.90;;;;;;5036170;28;20829;-85
2021/01/02 04:30:37;;;;;;;17.00;8.68;;;1.00;99.90;;;;;;5037196;28;20199;-86
2021/01/02 04:33:04;;;;;;;20.98;9.98;;;1.00;99.90;;;;;;5037230;28;20202;-84
2021/01/02 04:35:30;;;;;;;17.95;8.50;;;0.90;99.90;;;;;;5036839;28;20212;-84
2021/01/02 04:37:57;;;;;;;16.50;8.43;;;0.90;99.90;;;;;;5041467;28;20206;-87
2021/01/02 04:40:23;;;;;;;31.35;9.85;;;0.90;99.90;;;;;;5041081;28;20289;-85
2021/01/02 04:42:51;;;;;;;23.65;9.10;;;0.90;99.90;;;;;;5036201;28;20242;-84
2021/01/02 04:45:18;;;;;;;17.20;9.60;;;0.80;99.90;;;;;;5036261;28;20275;-85
2021/01/02 04:47:46;;;;;;;26.15;16.13;;;0.80;99.90;;;;;;5036805;28;20248;-84
2021/01/02 04:50:13;;;;;;;26.92;15.60;;;0.90;99.90;;;;;;5036662;28;20227;-85
2021/01/02 04:52:42;;;;;;;22.75;13.32;;;0.90;99.90;;;;;;5036676;28;20211;-84
2021/01/02 04:55:09;;;;;;;25.02;11.80;;;0.90;99.90;;;;;;5037275;28;20298;-92
2021/01/02 04:57:37;;;;;;;22.45;17.52;;;0.80;99.90;;;;;;5036144;28;20215;-84
2021/01/02 05:00:07;;;;;;;34.35;22.27;;;0.80;99.90;;;;;;5036856;28;20210;-85
2021/01/02 05:02:36;;;;;;;23.85;14.65;;;0.80;99.90;;;;;;5036844;28;20207;-86
2021/01/02 05:05:03;;;;;;;19.30;9.00;;;0.80;99.90;;;;;;5036695;28;20234;-87
2021/01/02 05:07:31;;;;;;;23.05;13.27;;;0.80;99.90;;;;;;5038461;28;20264;-86
2021/01/02 05:09:58;;;;;;;21.23;14.20;;;0.90;99.90;;;;;;5038369;28;20241;-87
2021/01/02 05:12:26;;;;;;;60.80;25.60;;;0.90;99.90;;;;;;5040797;28;20291;-92
2021/01/02 05:15:01;;;;;;;20.00;13.35;;;0.90;99.90;;;;;;5057594;28;20232;-89
2021/01/02 05:17:29;;;;;;;67.80;35.58;;;0.90;99.90;;;;;;5060377;28;20212;-85
2021/01/02 05:20:02;;;;;;;30.73;17.33;;;0.90;99.90;;;;;;5059797;28;20202;-84
2021/01/02 05:22:28;;;;;;;23.90;15.30;;;1.00;99.90;;;;;;5039153;28;20196;-84
2021/01/02 05:25:05;;;;;;;20.95;11.25;;;1.00;99.90;;;;;;5036961;28;20290;-84
2021/01/02 05:27:32;;;;;;;26.70;13.63;;;1.00;99.90;;;;;;5035764;28;20646;-83
2021/01/02 05:30:15;;;;;;;13.50;9.25;;;0.90;99.90;;;;;;5036793;28;21391;-94
2021/01/02 05:33:16;;;;;;;35.00;18.30;;;1.00;99.90;;;;;;5038830;28;20278;-88
2021/01/02 05:35:43;;;;;;;13.82;8.35;;;0.90;99.90;;;;;;5014259;28;20212;-84
2021/01/02 05:38:15;;;;;;;19.50;11.07;;;1.00;99.90;;;;;;5013395;28;20681;-85
2021/01/02 05:40:43;;;;;;;21.58;11.50;;;1.00;99.90;;;;;;5014661;28;20310;-85
2021/01/02 05:43:10;;;;;;;24.45;10.68;;;1.00;99.90;;;;;;5014607;28;20239;-85
2021/01/02 05:45:36;;;;;;;21.52;9.30;;;1.00;99.90;;;;;;5031848;28;20207;-85
2021/01/02 05:48:14;;;;;;;20.70;9.90;;;1.00;99.90;;;;;;5035301;28;20680;-94
2021/01/02 05:50:47;;;;;;;22.75;11.65;;;1.00;99.90;;;;;;5035752;28;20249;-90
2021/01/02 05:53:21;;;;;;;27.13;10.30;;;0.90;99.90;;;;;;5035448;28;20732;-85
2021/01/02 05:55:47;;;;;;;22.27;11.13;;;1.00;99.90;;;;;;5035232;28;20286;-85
2021/01/02 05:58:17;;;;;;;54.75;29.23;;;1.00;99.90;;;;;;5033922;28;20217;-85
2021/01/02 06:00:45;;;;;;;31.75;15.75;;;1.00;99.90;;;;;;5035225;28;20294;-85
2021/01/02 06:03:25;;;;;;;42.53;21.42;;;0.90;99.90;;;;;;5034778;28;20210;-86
2021/01/02 06:05:57;;;;;;;25.00;17.00;;;0.90;99.90;;;;;;5034670;28;20576;-86
2021/01/02 06:08:32;;;;;;;31.38;17.83;;;0.90;99.90;;;;;;5035547;28;20207;-86
2021/01/02 06:11:01;;;;;;;20.20;8.38;;;1.00;99.90;;;;;;5034831;28;20253;-85
2021/01/02 06:13:29;;;;;;;18.98;7.43;;;1.00;99.90;;;;;;5033702;28;20685;-85
2021/01/02 06:15:59;;;;;;;16.02;8.38;;;1.00;99.90;;;;;;5035092;28;20214;-84
2021/01/02 06:18:26;;;;;;;13.88;7.78;;;1.00;99.90;;;;;;5035006;28;20293;-84
2021/01/02 06:20:56;;;;;;;19.58;10.48;;;1.00;99.90;;;;;;5035000;28;20291;-85
2021/01/02 06:23:24;;;;;;;17.35;10.38;;;1.00;99.90;;;;;;5034767;28;20210;-87
2021/01/02 06:25:53;;;;;;;15.90;11.15;;;1.10;99.90;;;;;;5035762;28;20298;-88
2021/01/02 06:28:20;;;;;;;20.98;10.50;;;1.00;99.90;;;;;;5034249;28;20203;-86
2021/01/02 06:30:48;;;;;;;22.20;11.25;;;1.20;99.90;;;;;;5035064;28;20654;-87
2021/01/02 06:33:15;;;;;;;17.45;9.90;;;1.20;99.90;;;;;;5034453;28;20203;-89
2021/01/02 06:35:42;;;;;;;22.20;9.98;;;1.30;99.90;;;;;;5034497;28;20290;-89
2021/01/02 06:38:14;;;;;;;23.05;11.20;;;1.00;99.90;;;;;;5034614;28;20289;-87
2021/01/02 06:40:46;;;;;;;18.05;9.32;;;1.00;99.90;;;;;;5034494;28;20293;-89
2021/01/02 06:43:16;;;;;;;22.08;10.52;;;1.00;99.90;;;;;;5033439;28;20663;-90
2021/01/02 06:45:50;;;;;;;14.18;9.35;;;1.00;99.90;;;;;;5035041;28;20294;-85
2021/01/02 06:48:47;;;;;;;16.40;8.82;;;0.90;99.90;;;;;;5034118;28;20292;-85
2021/01/02 06:51:32;;;;;;;14.23;7.30;;;0.90;99.90;;;;;;5034052;28;20289;-85
2021/01/02 06:54:00;;;;;;;18.65;9.23;;;1.00;99.90;;;;;;5034194;28;20209;-84
2021/01/02 06:56:35;;;;;;;15.10;9.25;;;1.00;99.90;;;;;;5033592;28;20658;-85
2021/01/02 06:59:02;;;;;;;12.68;8.35;;;1.10;99.90;;;;;;5033059;28;20235;-84
2021/01/02 07:01:40;;;;;;;21.95;11.48;;;1.10;99.90;;;;;;5034550;28;20304;-92
2021/01/02 07:04:07;;;;;;;13.10;7.90;;;1.20;99.90;;;;;;5035062;28;20203;-83
2021/01/02 07:06:51;;;;;;;15.82;9.25;;;1.10;99.90;;;;;;5014248;28;20263;-84
2021/01/02 07:09:23;;;;;;;18.27;8.40;;;1.10;99.90;;;;;;5014406;28;20608;-85
2021/01/02 07:11:51;;;;;;;16.60;8.30;;;1.10;99.90;;;;;;5013934;28;20659;-84
2021/01/02 07:14:28;;;;;;;20.60;9.75;;;1.10;99.90;;;;;;5012766;28;20265;-85
2021/01/02 07:16:57;;;;;;;18.75;9.40;;;1.10;99.90;;;;;;5013989;28;20650;-84
2021/01/02 07:19:29;;;;;;;18.92;11.15;;;1.10;99.90;;;;;;5013512;28;20210;-91
2021/01/02 07:21:58;;;;;;;33.95;22.95;;;1.00;99.90;;;;;;5014613;28;20203;-85
2021/01/02 07:24:25;;;;;;;22.52;9.98;;;1.00;99.90;;;;;;5014244;28;20207;-84
2021/01/02 07:26:59;;;;;;;57.42;29.67;;;1.10;99.90;;;;;;5014196;28;20203;-85
2021/01/02 07:29:26;;;;;;;24.92;14.73;;;1.00;99.90;;;;;;5012859;28;20235;-84
2021/01/02 07:31:53;;;;;;;20.42;13.02;;;1.00;99.90;;;;;;5014088;28;20692;-87
2021/01/02 07:34:23;;;;;;;11.18;8.35;;;1.00;99.90;;;;;;5015117;28;20207;-85
2021/01/02 07:36:50;;;;;;;16.90;7.25;;;0.90;99.90;;;;;;5035431;28;20206;-84
2021/01/02 07:39:17;;;;;;;30.30;17.25;;;1.00;99.90;;;;;;5036185;28;20638;-88
2021/01/02 07:41:44;;;;;;;14.30;8.75;;;1.00;99.90;;;;;;5034620;28;20209;-84
2021/01/02 07:44:12;;;;;;;12.80;8.57;;;0.90;99.90;;;;;;5032833;28;20230;-84
2021/01/02 07:46:43;;;;;;;21.02;11.68;;;1.00;99.90;;;;;;5034602;28;20312;-86
2021/01/02 07:49:10;;;;;;;21.27;10.85;;;0.90;99.90;;;;;;5034408;28;20746;-84
2021/01/02 07:51:36;;;;;;;15.80;9.10;;;1.00;99.90;;;;;;5034024;28;20297;-85
2021/01/02 07:54:03;;;;;;;12.07;8.05;;;0.90;99.90;;;;;;5034341;28;20294;-86
2021/01/02 07:56:37;;;;;;;16.92;9.32;;;1.00;99.90;;;;;;5038787;28;20289;-87
2021/01/02 07:59:21;;;;;;;18.17;8.10;;;0.90;99.90;;;;;;5034459;28;20295;-86
2021/01/02 08:01:52;;;;;;;16.38;9.73;;;1.00;99.90;;;;;;5039641;28;20294;-86
2021/01/02 08:04:21;;;;;;;18.13;11.95;;;1.00;99.90;;;;;;5037612;28;20437;-85
2021/01/02 08:06:48;;;;;;;15.90;9.25;;;1.00;99.90;;;;;;5038652;28;20487;-86
2021/01/02 08:09:15;;;;;;;79.50;36.17;;;1.10;99.90;;;;;;5037211;28;20238;-84
2021/01/02 08:11:57;;;;;;;43.50;23.15;;;1.10;99.90;;;;;;5034149;28;20572;-86
2021/01/02 08:14:25;;;;;;;20.40;12.07;;;1.10;99.90;;;;;;5038141;28;20274;-85
2021/01/02 08:16:57;;;;;;;55.78;26.80;;;1.20;99.90;;;;;;5034294;28;20213;-85
2021/01/02 08:19:26;;;;;;;25.40;13.73;;;1.10;99.90;;;;;;5033962;28;20620;-85
2021/01/02 08:21:53;;;;;;;14.73;9.00;;;1.10;99.90;;;;;;5032932;28;20215;-79
2021/01/02 08:24:19;;;;;;;13.82;8.70;;;1.40;99.90;;;;;;5033164;28;20245;-87
2021/01/02 08:26:46;;;;;;;15.90;9.90;;;1.50;99.90;;;;;;5034122;28;20246;-85
2021/01/02 08:29:13;;;;;;;15.43;9.10;;;1.40;99.90;;;;;;5034362;28;20319;-86
2021/01/02 08:31:55;;;;;;;19.33;11.27;;;1.30;99.90;;;;;;5037801;28;20293;-87
2021/01/02 08:34:30;;;;;;;19.52;10.93;;;1.20;99.90;;;;;;5036092;28;20204;-86
2021/01/02 08:37:05;;;;;;;16.10;9.55;;;1.20;99.90;;;;;;5035498;28;20206;-86
2021/01/02 08:39:32;;;;;;;18.90;9.10;;;1.30;99.90;;;;;;5034033;28;20301;-85
2021/01/02 08:41:59;;;;;;;20.05;13.50;;;1.30;99.90;;;;;;5034630;28;20625;-85
2021/01/02 08:44:32;;;;;;;16.35;10.65;;;1.30;99.90;;;;;;5032491;28;20741;-87
2021/01/02 08:47:01;;;;;;;14.75;8.85;;;1.30;99.90;;;;;;5034361;28;20294;-85
2021/01/02 08:49:35;;;;;;;17.92;9.65;;;1.40;99.90;;;;;;5033020;28;20235;-90
2021/01/02 08:52:24;;;;;;;18.80;9.75;;;1.50;99.90;;;;;;5034099;28;20203;-86
2021/01/02 08:54:52;;;;;;;20.20;11.13;;;1.60;99.90;;;;;;5034089;28;20306;-86
2021/01/02 08:57:32;;;;;;;25.13;12.90;;;1.50;99.90;;;;;;5033101;28;20211;-84
2021/01/02 09:00:15;;;;;;;15.55;9.38;;;1.50;99.90;;;;;;5035765;28;20314;-84
2021/01/02 09:02:44;;;;;;;18.95;10.13;;;1.60;99.90;;;;;;5036070;28;20306;-83
2021/01/02 09:05:12;;;;;;;16.40;9.57;;;1.70;99.90;;;;;;5032761;28;20203;-85
2021/01/02 09:07:40;;;;;;;15.50;7.97;;;1.80;99.90;;;;;;5036675;28;20298;-87
2021/01/02 09:10:21;;;;;;;16.73;10.80;;;1.70;99.90;;;;;;5036934;28;20321;-85
2021/01/02 09:13:04;;;;;;;18.42;10.23;;;1.60;99.90;;;;;;5037221;28;20286;-83
2021/01/02 09:15:45;;;;;;;12.23;9.07;;;1.50;99.90;;;;;;5037517;28;20345;-80
2021/01/02 09:18:16;;;;;;;16.20;9.50;;;1.50;99.90;;;;;;5040555;28;20266;-82
2021/01/02 09:20:44;;;;;;;15.35;9.45;;;1.60;99.90;;;;;;5037658;28;20217;-83
2021/01/02 09:23:14;;;;;;;18.73;10.20;;;1.70;99.90;;;;;;5043666;28;20206;-83
2021/01/02 09:25:41;;;;;;;20.92;12.82;;;1.80;99.90;;;;;;5047576;28;20199;-83
2021/01/02 09:28:15;;;;;;;24.38;13.77;;;1.80;99.90;;;;;;5048084;28;20207;-83
2021/01/02 09:30:48;;;;;;;15.07;10.10;;;1.80;99.90;;;;;;5048804;28;20241;-82
2021/01/02 09:33:16;;;;;;;18.23;12.57;;;2.10;99.90;;;;;;5047115;28;20625;-86
2021/01/02 09:35:44;;;;;;;16.50;11.00;;;2.10;99.90;;;;;;5043152;28;20302;-87
2021/01/02 09:38:11;;;;;;;19.63;11.68;;;2.20;99.90;;;;;;5037050;28;20360;-84
2021/01/02 09:40:41;;;;;;;16.55;10.18;;;2.40;99.90;;;;;;5038146;28;20233;-87
2021/01/02 09:43:10;;;;;;;14.27;9.20;;;2.40;99.90;;;;;;5042938;28;20214;-85
2021/01/02 09:45:37;;;;;;;16.58;10.18;;;2.30;99.90;;;;;;5036839;28;20237;-83
2021/01/02 09:48:04;;;;;;;19.75;11.85;;;2.30;99.90;;;;;;5036324;28;20224;-86
2021/01/02 09:50:30;;;;;;;19.75;10.50;;;2.20;99.90;;;;;;5035891;28;20226;-83
2021/01/02 09:52:57;;;;;;;19.23;12.55;;;2.40;99.90;;;;;;5037644;28;20618;-83
2021/01/02 09:55:23;;;;;;;19.27;10.95;;;2.40;99.90;;;;;;5036334;28;20669;-83
2021/01/02 09:57:51;;;;;;;21.23;11.80;;;2.60;99.90;;;;;;5035082;28;20211;-82
2021/01/02 10:00:20;;;;;;;20.27;11.70;;;2.70;99.90;;;;;;5035474;28;20690;-85
2021/01/02 10:02:46;;;;;;;16.50;10.98;;;2.70;99.90;;;;;;5035861;28;20203;-84
2021/01/02 10:05:14;;;;;;;16.75;11.32;;;2.60;99.90;;;;;;5034027;28;20213;-83
2021/01/02 10:07:41;;;;;;;17.02;10.10;;;2.40;99.90;;;;;;5037093;28;20306;-82
2021/01/02 10:10:09;;;;;;;15.32;10.10;;;2.30;99.90;;;;;;5002643;28;20244;-84
2021/01/02 10:12:35;;;;;;;14.18;9.77;;;2.30;99.90;;;;;;4995162;28;20204;-81
2021/01/02 10:15:03;;;;;;;18.23;11.32;;;2.30;99.90;;;;;;4996418;28;20617;-82
2021/01/02 10:17:29;;;;;;;16.77;11.18;;;2.30;99.90;;;;;;4995893;28;20205;-82
2021/01/02 10:19:56;;;;;;;13.00;8.60;;;2.40;99.90;;;;;;4996384;28;20219;-86
2021/01/02 10:22:23;;;;;;;18.80;11.77;;;2.70;99.90;;;;;;4997621;28;20683;-82
2021/01/02 10:24:52;;;;;;;16.67;11.75;;;2.60;99.90;;;;;;4999639;28;20295;-80
2021/01/02 10:27:20;;;;;;;15.82;11.43;;;2.80;99.90;;;;;;5009881;28;20308;-83
2021/01/02 10:29:48;;;;;;;15.93;10.43;;;2.90;99.90;;;;;;5016355;28;20256;-85
2021/01/02 10:32:16;;;;;;;15.50;10.30;;;3.00;99.90;;;;;;5017918;28;20195;-86
2021/01/02 10:34:45;;;;;;;17.00;11.48;;;3.20;99.90;;;;;;5016004;28;20577;-82
2021/01/02 10:37:13;;;;;;;15.82;11.15;;;3.20;99.90;;;;;;5017300;28;20254;-89
2021/01/02 10:39:40;;;;;;;13.05;9.45;;;3.20;99.90;;;;;;5018556;28;20204;-83
2021/01/02 10:42:07;;;;;;;17.27;10.57;;;3.60;99.90;;;;;;5017999;28;20290;-88
2021/01/02 10:44:33;;;;;;;14.48;9.45;;;3.80;99.90;;;;;;5018216;28;20294;-87
2021/01/02 10:47:00;;;;;;;14.80;9.65;;;3.90;99.90;;;;;;5014486;28;20294;-86
2021/01/02 10:49:28;;;;;;;15.15;10.48;;;3.80;99.90;;;;;;5014348;28;20596;-84
2021/01/02 10:51:56;;;;;;;16.38;11.02;;;3.70;99.90;;;;;;5014952;28;20250;-83
2021/01/02 10:54:23;;;;;;;17.23;9.95;;;3.80;99.90;;;;;;5014761;28;20742;-83
2021/01/02 10:56:51;;;;;;;14.82;9.73;;;3.70;99.90;;;;;;5014413;28;20230;-84
2021/01/02 10:59:19;;;;;;;17.20;10.90;;;3.80;99.90;;;;;;5014149;28;20294;-86
2021/01/02 11:01:49;;;;;;;13.50;11.40;;;3.80;99.90;;;;;;5014711;28;20262;-84
2021/01/02 11:04:17;;;;;;;18.85;11.32;;;3.90;99.90;;;;;;5024875;28;20238;-82
2021/01/02 11:06:45;;;;;;;14.07;9.20;;;3.80;99.90;;;;;;5034539;28;20211;-83
2021/01/02 11:09:14;;;;;;;19.17;11.07;;;3.90;99.90;;;;;;5033737;28;20226;-85
2021/01/02 11:11:43;;;;;;;17.40;10.50;;;3.70;99.90;;;;;;5034081;28;20302;-84
2021/01/02 11:14:10;;;;;;;15.70;10.65;;;3.90;99.90;;;;;;5032427;28;20662;-84
2021/01/02 11:16:39;;;;;;;13.57;9.68;;;3.90;99.90;;;;;;5033959;28;20203;-88
2021/01/02 11:19:10;;;;;;;18.90;10.23;;;3.90;99.90;;;;;;5033877;28;20242;-81
2021/01/02 11:21:37;;;;;;;19.23;12.45;;;3.80;99.90;;;;;;5033650;28;20266;-84
2021/01/02 11:24:05;;;;;;;15.13;9.57;;;3.70;99.90;;;;;;5033731;28;20202;-84
2021/01/02 11:26:32;;;;;;;17.25;10.30;;;3.50;99.90;;;;;;5033926;28;20230;-85
2021/01/02 11:28:58;;;;;;;18.98;11.73;;;3.40;99.90;;;;;;5031679;28;20249;-88
2021/01/02 11:31:33;;;;;;;17.88;10.65;;;3.30;99.90;;;;;;5033876;28;20294;-88
2021/01/02 11:34:00;;;;;;;15.25;10.18;;;3.30;99.90;;;;;;5032345;28;20206;-88
2021/01/02 11:36:27;;;;;;;19.35;12.15;;;3.30;99.90;;;;;;5033864;28;20209;-88
2021/01/02 11:38:56;;;;;;;18.45;11.23;;;3.20;99.90;;;;;;5034299;28;20310;-85
2021/01/02 11:41:31;;;;;;;20.05;12.50;;;3.20;99.90;;;;;;5033773;28;20286;-85
2021/01/02 11:43:57;;;;;;;18.00;11.32;;;3.30;99.90;;;;;;5032303;28;20708;-82
2021/01/02 11:46:27;;;;;;;20.13;10.80;;;3.40;99.90;;;;;;5034242;28;20710;-84
2021/01/02 11:48:54;;;;;;;17.02;10.13;;;3.40;99.90;;;;;;5033049;28;20207;-83
2021/01/02 11:51:21;;;;;;;18.73;11.43;;;3.50;99.90;;;;;;5033854;28;20202;-85
2021/01/02 11:53:47;;;;;;;17.35;10.30;;;3.40;99.90;;;;;;5033234;28;20293;-82
2021/01/02 11:56:14;;;;;;;17.05;12.20;;;3.40;99.90;;;;;;5033726;28;20234;-86
2021/01/02 11:58:42;;;;;;;16.92;11.77;;;3.40;99.90;;;;;;5032916;28;20333;-80
2021/01/02 12:01:08;;;;;;;17.30;10.65;;;3.40;99.90;;;;;;5033878;28;20329;-84
2021/01/02 12:03:34;;;;;;;15.85;10.02;;;3.50;99.90;;;;;;5032072;28;20289;-85
2021/01/02 12:06:01;;;;;;;15.38;10.23;;;3.50;99.90;;;;;;5032541;28;20209;-85
2021/01/02 12:08:27;;;;;;;24.25;12.88;;;3.50;99.90;;;;;;5033295;28;20290;-86
2021/01/02 12:10:53;;;;;;;15.95;10.38;;;3.60;99.90;;;;;;5033403;28;20709;-87
2021/01/02 12:13:20;;;;;;;21.42;8.57;;;3.60;99.90;;;;;;5032696;28;20737;-84
2021/01/02 12:15:51;;;;;;;15.77;10.93;;;3.50;99.90;;;;;;5028379;28;20282;-81
2021/01/02 12:18:17;;;;;;;16.92;9.05;;;3.50;99.90;;;;;;4992871;28;20208;-85
2021/01/02 12:20:45;;;;;;;15.43;10.50;;;3.60;99.90;;;;;;4993162;28;20306;-82
2021/01/02 12:23:11;;;;;;;17.10;10.18;;;3.50;99.90;;;;;;4993590;28;20209;-82
2021/01/02 12:25:38;;;;;;;18.10;9.10;;;3.50;99.90;;;;;;4993597;28;20211;-82
2021/01/02 12:28:05;;;;;;;14.80;10.57;;;3.60;99.90;;;;;;4992602;28;20232;-85
2021/01/02 12:30:31;;;;;;;17.17;11.70;;;3.70;99.90;;;;;;4993453;28;20232;-82
2021/01/02 12:32:59;;;;;;;19.70;11.23;;;3.80;99.90;;;;;;4996738;28;20204;-83
2021/01/02 12:35:27;;;;;;;17.80;10.43;;;3.80;99.90;;;;;;5031003;28;20243;-79
2021/01/02 12:37:53;;;;;;;15.55;10.77;;;3.60;99.90;;;;;;5033147;28;20207;-82
2021/01/02 12:40:20;;;;;;;20.30;11.05;;;3.80;99.90;;;;;;5035711;28;20678;-81
2021/01/02 12:42:47;;;;;;;19.25;10.80;;;3.80;99.90;;;;;;5037601;28;20213;-83
2021/01/02 12:45:14;;;;;;;17.13;10.60;;;3.90;99.90;;;;;;5037719;28;20260;-80
2021/01/02 12:47:41;;;;;;;18.02;10.45;;;3.80;99.90;;;;;;5037527;28;20765;-84
2021/01/02 12:50:11;;;;;;;21.73;11.63;;;3.80;99.90;;;;;;5037079;28;20806;-81
2021/01/02 12:52:37;;;;;;;18.50;11.35;;;3.70;99.90;;;;;;5038835;28;20266;-80
2021/01/02 12:55:06;;;;;;;20.30;12.02;;;3.80;99.90;;;;;;5037460;28;20725;-79
2021/01/02 12:57:32;;;;;;;24.77;11.77;;;3.80;99.90;;;;;;5036960;28;20266;-79
2021/01/02 12:59:59;;;;;;;19.85;10.68;;;3.80;99.90;;;;;;5037711;28;20198;-81